createdAt,value
2022-11-01T00:02:14.707Z,1.77
2022-11-01T00:04:42.240Z,0.98
2022-11-01T00:07:09.770Z,0.93
2022-11-01T00:09:37.314Z,0.98
2022-11-01T00:12:05.081Z,2.40
2022-11-01T00:14:33.600Z,1.73
2022-11-01T00:17:01.033Z,1.50
2022-11-01T00:19:28.608Z,1.55
2022-11-01T00:21:56.040Z,1.35
2022-11-01T00:24:23.710Z,2.35
2022-11-01T00:26:51.219Z,1.80
2022-11-01T00:29:18.814Z,3.08
2022-11-01T00:31:46.198Z,2.35
2022-11-01T00:34:16.400Z,3.33
2022-11-01T00:36:44.054Z,1.70
2022-11-01T00:39:16.634Z,0.98
2022-11-01T00:41:44.215Z,1.37
2022-11-01T00:44:11.736Z,2.05
2022-11-01T00:46:39.202Z,2.17
2022-11-01T00:49:08.746Z,2.42
2022-11-01T00:51:36.203Z,1.52
2022-11-01T00:54:05.924Z,1.63
2022-11-01T00:56:33.341Z,1.10
2022-11-01T00:59:03.009Z,1.17
2022-11-01T01:01:32.546Z,1.13
2022-11-01T01:04:00.260Z,0.73
2022-11-01T01:06:27.795Z,0.55
2022-11-01T01:08:58.924Z,1.73
2022-11-01T01:11:28.275Z,0.50
2022-11-01T01:13:55.937Z,0.57
2022-11-01T01:16:23.488Z,1.48
2022-11-01T01:18:51.663Z,0.40
2022-11-01T01:21:20.331Z,0.65
2022-11-01T01:23:48.759Z,0.82
2022-11-01T01:26:17.573Z,1.52
2022-11-01T01:28:45.122Z,0.75
2022-11-01T01:31:14.022Z,1.25
2022-11-01T01:33:41.712Z,0.77
2022-11-01T01:36:09.720Z,0.80
2022-11-01T01:38:37.208Z,0.55
2022-11-01T01:41:23.717Z,0.30
2022-11-01T01:43:51.389Z,0.55
2022-11-01T01:46:21.423Z,1.00
2022-11-01T01:48:52.900Z,1.23
2022-11-01T01:51:24.708Z,1.92
2022-11-01T01:53:54.073Z,2.42
2022-11-01T01:56:28.416Z,1.95
2022-11-01T01:59:05.263Z,1.88
2022-11-01T02:01:35.335Z,1.70
2022-11-01T02:04:04.302Z,4.35
2022-11-01T02:06:32.656Z,2.97
2022-11-01T02:09:01.965Z,2.50
2022-11-01T02:11:30.543Z,2.15
2022-11-01T02:13:58.797Z,2.33
2022-11-01T02:16:39.040Z,2.80
2022-11-01T02:19:34.664Z,2.20
2022-11-01T02:22:20.428Z,3.75
2022-11-01T02:25:13.130Z,2.13
2022-11-01T02:27:44.423Z,2.35
2022-11-01T02:30:22.007Z,2.60
2022-11-01T02:32:49.381Z,2.40
2022-11-01T02:35:59.131Z,1.83
2022-11-01T02:38:29.435Z,3.45
2022-11-01T02:41:03.585Z,2.28
2022-11-01T02:43:41.309Z,2.38
2022-11-01T02:46:28.081Z,2.25
2022-11-01T02:48:56.960Z,2.35
2022-11-01T02:51:26.914Z,1.48
2022-11-01T02:53:54.267Z,2.05
2022-11-01T02:56:22.814Z,2.03
2022-11-01T02:58:51.893Z,1.25
2022-11-01T03:01:23.020Z,1.63
2022-11-01T03:03:52.356Z,1.55
2022-11-01T03:06:39.080Z,2.10
2022-11-01T03:09:10.141Z,2.17
2022-11-01T03:11:40.699Z,1.42
2022-11-01T03:14:26.255Z,1.10
2022-11-01T03:17:00.655Z,2.00
2022-11-01T03:19:52.034Z,0.85
2022-11-01T03:22:29.028Z,2.83
2022-11-01T03:25:35.344Z,1.17
2022-11-01T03:28:21.913Z,0.80
2022-11-01T03:31:03.643Z,0.60
2022-11-01T03:33:33.244Z,1.25
2022-11-01T03:36:13.465Z,2.55
2022-11-01T03:38:46.336Z,3.00
2022-11-01T03:41:16.657Z,1.00
2022-11-01T03:43:44.082Z,4.63
2022-11-01T03:46:13.816Z,1.20
2022-11-01T03:48:41.597Z,1.38
2022-11-01T03:51:11.112Z,0.90
2022-11-01T03:53:38.521Z,2.08
2022-11-01T03:56:07.519Z,1.85
2022-11-01T03:58:45.179Z,1.38
2022-11-01T04:01:14.787Z,2.40
2022-11-01T04:03:42.557Z,1.15
2022-11-01T04:06:10.237Z,0.75
2022-11-01T04:08:37.794Z,4.03
2022-11-01T04:11:05.347Z,1.52
2022-11-01T04:13:32.951Z,1.27
2022-11-01T04:16:19.177Z,1.77
2022-11-01T04:19:11.253Z,1.10
2022-11-01T04:21:38.900Z,0.85
2022-11-01T04:24:08.258Z,1.52
2022-11-01T04:26:35.923Z,2.20
2022-11-01T04:29:03.604Z,0.85
2022-11-01T04:31:36.238Z,1.45
2022-11-01T04:34:04.938Z,1.27
2022-11-01T04:36:33.438Z,0.82
2022-11-01T04:39:00.895Z,2.00
2022-11-01T04:41:29.720Z,1.25
2022-11-01T04:43:59.768Z,2.03
2022-11-01T04:46:31.790Z,1.27
2022-11-01T04:48:59.397Z,0.68
2022-11-01T04:51:27.039Z,1.25
2022-11-01T04:53:54.550Z,0.90
2022-11-01T04:56:22.138Z,2.17
2022-11-01T04:58:49.681Z,1.38
2022-11-01T05:01:17.200Z,2.08
2022-11-01T05:03:44.874Z,1.08
2022-11-01T05:06:14.377Z,1.10
2022-11-01T05:08:41.743Z,0.98
2022-11-01T05:11:09.422Z,1.98
2022-11-01T05:13:36.848Z,1.20
2022-11-01T05:16:21.101Z,0.95
2022-11-01T05:18:48.903Z,0.93
2022-11-01T05:21:18.163Z,2.70
2022-11-01T05:23:51.491Z,4.65
2022-11-01T05:26:19.687Z,2.42
2022-11-01T05:28:48.069Z,2.85
2022-11-01T05:31:15.488Z,1.98
2022-11-01T05:33:45.025Z,2.63
2022-11-01T05:36:12.511Z,3.35
2022-11-01T05:38:41.028Z,1.73
2022-11-01T05:41:08.505Z,2.95
2022-11-01T05:43:36.982Z,8.07
2022-11-01T05:46:05.732Z,3.20
2022-11-01T05:48:34.001Z,2.45
2022-11-01T05:51:01.371Z,4.68
2022-11-01T05:53:32.602Z,2.63
2022-11-01T05:56:00.089Z,6.72
2022-11-01T05:58:31.660Z,5.40
2022-11-01T06:00:59.900Z,6.35
2022-11-01T06:03:27.684Z,7.88
2022-11-01T06:05:57.789Z,9.65
2022-11-01T06:08:25.952Z,5.35
2022-11-01T06:11:12.606Z,5.32
2022-11-01T06:13:39.939Z,6.57
2022-11-01T06:16:08.064Z,5.60
2022-11-01T06:18:35.573Z,4.63
2022-11-01T06:21:05.062Z,3.35
2022-11-01T06:23:32.456Z,5.75
2022-11-01T06:26:01.474Z,4.70
2022-11-01T06:28:28.934Z,3.70
2022-11-01T06:31:00.966Z,3.70
2022-11-01T06:33:29.964Z,2.70
2022-11-01T06:35:58.558Z,4.00
2022-11-01T06:38:26.380Z,2.97
2022-11-01T06:40:56.824Z,2.53
2022-11-01T06:43:24.326Z,2.70
2022-11-01T06:45:51.823Z,2.70
2022-11-01T06:48:19.367Z,5.88
2022-11-01T06:50:47.021Z,4.07
2022-11-01T06:53:14.524Z,5.38
2022-11-01T06:55:42.164Z,5.05
2022-11-01T06:58:09.640Z,2.83
2022-11-01T07:00:37.248Z,2.58
2022-11-01T07:03:10.515Z,3.42
2022-11-01T07:05:38.936Z,3.00
2022-11-01T07:08:09.155Z,2.60
2022-11-01T07:10:38.307Z,3.80
2022-11-01T07:13:07.451Z,3.75
2022-11-01T07:15:35.046Z,2.75
2022-11-01T07:18:04.792Z,3.05
2022-11-01T07:20:41.562Z,2.65
2022-11-01T07:23:15.543Z,4.05
2022-11-01T07:25:43.669Z,2.25
2022-11-01T07:28:11.270Z,4.20
2022-11-01T07:30:39.441Z,2.75
2022-11-01T07:33:07.225Z,2.35
2022-11-01T07:35:35.702Z,4.95
2022-11-01T07:38:08.013Z,3.47
2022-11-01T07:40:40.596Z,3.53
2022-11-01T07:43:09.317Z,3.03
2022-11-01T07:45:37.006Z,2.58
2022-11-01T07:48:10.261Z,1.90
2022-11-01T07:50:38.794Z,2.47
2022-11-01T07:53:08.997Z,5.28
2022-11-01T07:55:36.718Z,3.28
2022-11-01T07:58:05.569Z,3.10
2022-11-01T08:00:33.388Z,2.00
2022-11-01T08:03:09.699Z,3.75
2022-11-01T08:05:42.114Z,2.67
2022-11-01T08:08:10.365Z,4.47
2022-11-01T08:10:39.295Z,2.78
2022-11-01T08:13:07.874Z,2.42
2022-11-01T08:15:36.022Z,3.17
2022-11-01T08:18:03.880Z,2.10
2022-11-01T08:20:31.953Z,2.15
2022-11-01T08:22:59.588Z,3.25
2022-11-01T08:25:27.039Z,3.92
2022-11-01T08:27:54.541Z,4.72
2022-11-01T08:30:22.736Z,3.50
2022-11-01T08:32:58.716Z,4.75
2022-11-01T08:35:26.918Z,4.38
2022-11-01T08:37:54.813Z,3.33
2022-11-01T08:40:22.749Z,4.15
2022-11-01T08:42:50.334Z,4.50
2022-11-01T08:45:17.991Z,7.03
2022-11-01T08:47:45.788Z,5.97
2022-11-01T08:50:15.851Z,4.45
2022-11-01T08:52:43.428Z,7.85
2022-11-01T08:55:11.659Z,9.25
2022-11-01T08:57:39.196Z,6.05
2022-11-01T09:00:07.300Z,10.45
2022-11-01T09:02:34.947Z,7.40
2022-11-01T09:05:05.269Z,7.38
2022-11-01T09:07:34.805Z,9.02
2022-11-01T09:10:02.454Z,6.20
2022-11-01T09:12:29.913Z,6.95
2022-11-01T09:14:57.539Z,7.68
2022-11-01T09:17:24.953Z,6.75
2022-11-01T09:19:52.628Z,9.25
2022-11-01T09:22:20.045Z,8.80
2022-11-01T09:24:47.580Z,9.48
2022-11-01T09:27:16.445Z,8.00
2022-11-01T09:29:46.576Z,8.43
2022-11-01T09:32:17.737Z,8.90
2022-11-01T09:34:45.451Z,6.85
2022-11-01T09:37:12.807Z,5.72
2022-11-01T09:39:40.296Z,8.07
2022-11-01T09:42:32.503Z,9.88
2022-11-01T09:45:16.189Z,11.35
2022-11-01T09:50:30.195Z,6.97
2022-11-01T09:52:57.854Z,9.80
2022-11-01T09:55:56.306Z,11.07
2022-11-01T09:58:30.283Z,11.05
2022-11-01T10:01:07.158Z,7.53
2022-11-01T10:03:51.928Z,7.47
2022-11-01T10:06:25.313Z,8.05
2022-11-01T10:09:14.250Z,9.82
2022-11-01T10:11:54.478Z,10.13
2022-11-01T10:14:45.681Z,7.72
2022-11-01T10:17:15.585Z,13.23
2022-11-01T10:19:47.368Z,7.65
2022-11-01T10:22:28.381Z,9.27
2022-11-01T10:25:04.867Z,7.03
2022-11-01T10:27:47.326Z,7.00
2022-11-01T10:30:16.702Z,9.02
2022-11-01T10:32:54.980Z,8.30
2022-11-01T10:35:30.688Z,10.05
2022-11-01T10:38:49.654Z,12.82
2022-11-01T10:41:10.477Z,8.23
2022-11-01T10:43:43.382Z,10.35
2022-11-01T10:46:14.779Z,8.52
2022-11-01T10:48:45.499Z,8.25
2022-11-01T10:51:15.809Z,7.03
2022-11-01T10:53:48.996Z,15.02
2022-11-01T10:59:01.645Z,5.43
2022-11-01T11:01:34.700Z,10.02
2022-11-01T11:04:04.026Z,8.15
2022-11-01T11:06:33.764Z,7.80
2022-11-01T11:09:02.954Z,6.60
2022-11-01T11:11:40.885Z,7.68
2022-11-01T11:14:09.151Z,4.70
2022-11-01T11:16:53.708Z,6.55
2022-11-01T11:19:33.449Z,12.85
2022-11-01T11:22:02.215Z,11.07
2022-11-01T11:24:38.176Z,9.77
2022-11-01T11:27:33.767Z,8.30
2022-11-01T11:30:07.696Z,6.72
2022-11-01T11:32:39.811Z,9.73
2022-11-01T11:35:14.123Z,12.93
2022-11-01T11:38:00.939Z,13.15
2022-11-01T11:40:42.172Z,9.95
2022-11-01T11:43:21.790Z,8.23
2022-11-01T11:46:10.857Z,11.80
2022-11-01T11:49:05.636Z,15.00
2022-11-01T11:51:35.546Z,11.05
2022-11-01T11:54:12.901Z,12.45
2022-11-01T11:56:40.319Z,7.45
2022-11-01T11:59:20.449Z,6.97
2022-11-01T12:01:48.335Z,7.13
2022-11-01T12:04:17.096Z,7.40
2022-11-01T12:06:45.208Z,6.22
2022-11-01T12:09:46.692Z,5.90
2022-11-01T12:12:35.111Z,6.43
2022-11-01T12:15:03.956Z,8.73
2022-11-01T12:17:39.456Z,10.43
2022-11-01T12:20:17.756Z,7.30
2022-11-01T12:22:50.759Z,6.40
2022-11-01T12:28:14.131Z,4.32
2022-11-01T12:30:41.915Z,5.38
2022-11-01T12:33:22.671Z,3.67
2022-11-01T12:35:52.800Z,4.10
2022-11-01T12:38:39.399Z,2.63
2022-11-01T12:41:37.450Z,2.40
2022-11-01T12:44:29.584Z,4.55
2022-11-01T12:47:15.629Z,5.07
2022-11-01T12:49:52.086Z,5.97
2022-11-01T12:52:24.985Z,9.05
2022-11-01T12:54:58.762Z,9.40
2022-11-01T12:57:26.392Z,13.10
2022-11-01T12:59:54.039Z,8.20
2022-11-01T13:02:34.224Z,7.25
2022-11-01T13:05:11.745Z,10.00
2022-11-01T13:08:03.412Z,7.63
2022-11-01T13:13:48.416Z,7.25
2022-11-01T13:16:20.109Z,10.32
2022-11-01T13:19:38.544Z,8.35
2022-11-01T13:22:13.836Z,8.88
2022-11-01T13:25:22.743Z,9.43
2022-11-01T13:28:08.647Z,8.27
2022-11-01T13:30:38.250Z,7.25
2022-11-01T13:33:17.874Z,8.35
2022-11-01T13:35:48.663Z,6.85
2022-11-01T13:38:36.266Z,8.00
2022-11-01T13:41:19.840Z,7.15
2022-11-01T13:43:52.107Z,6.90
2022-11-01T13:46:44.311Z,7.88
2022-11-01T13:49:42.889Z,5.55
2022-11-01T13:52:19.926Z,6.80
2022-11-01T13:54:50.716Z,7.13
2022-11-01T13:57:20.924Z,9.57
2022-11-01T13:59:56.115Z,6.80
2022-11-01T14:02:23.871Z,7.00
2022-11-01T14:05:03.188Z,10.23
2022-11-01T14:07:36.646Z,9.40
2022-11-01T14:10:20.583Z,8.63
2022-11-01T14:12:56.796Z,10.52
2022-11-01T14:15:28.764Z,12.88
2022-11-01T14:18:10.927Z,7.53
2022-11-01T14:20:40.415Z,9.90
2022-11-01T14:23:27.823Z,9.68
2022-11-01T14:26:20.382Z,10.07
2022-11-01T14:28:49.831Z,9.95
2022-11-01T14:31:19.172Z,12.63
2022-11-01T14:33:49.263Z,7.03
2022-11-01T14:36:19.633Z,8.18
2022-11-01T14:38:53.072Z,9.45
2022-11-01T14:41:22.970Z,8.25
2022-11-01T14:43:56.165Z,7.55
2022-11-01T14:49:11.156Z,6.18
2022-11-01T14:51:42.463Z,6.53
2022-11-01T14:54:18.574Z,4.97
2022-11-01T14:56:52.152Z,4.57
2022-11-01T14:59:27.172Z,4.53
2022-11-01T15:02:02.412Z,4.03
2022-11-01T15:04:40.641Z,3.95
2022-11-01T15:07:27.735Z,3.58
2022-11-01T15:10:06.217Z,4.80
2022-11-01T15:12:35.820Z,4.38
2022-11-01T15:15:04.022Z,8.93
2022-11-01T15:17:34.028Z,5.25
2022-11-01T15:20:04.270Z,5.22
2022-11-01T15:22:33.336Z,5.20
2022-11-01T15:25:03.169Z,6.55
2022-11-01T15:27:42.961Z,3.97
2022-11-01T15:30:19.913Z,5.07
2022-11-01T15:32:51.031Z,4.80
2022-11-01T15:35:26.103Z,7.35
2022-11-01T15:37:54.646Z,4.90
2022-11-01T15:40:34.930Z,6.40
2022-11-01T15:43:04.105Z,5.15
2022-11-01T15:45:33.719Z,7.05
2022-11-01T15:48:07.051Z,5.03
2022-11-01T15:53:09.443Z,5.97
2022-11-01T15:55:40.611Z,7.50
2022-11-01T15:58:13.580Z,6.78
2022-11-01T16:00:44.854Z,7.22
2022-11-01T16:03:20.739Z,9.32
2022-11-01T16:06:10.931Z,9.07
2022-11-01T16:09:01.764Z,6.47
2022-11-01T16:11:30.780Z,5.80
2022-11-01T16:14:05.521Z,5.78
2022-11-01T16:16:55.071Z,6.22
2022-11-01T16:19:36.227Z,6.72
2022-11-01T16:22:05.496Z,7.45
2022-11-01T16:24:34.217Z,6.68
2022-11-01T16:27:06.253Z,5.80
2022-11-01T16:29:46.833Z,5.35
2022-11-01T16:32:20.109Z,5.05
2022-11-01T16:34:47.574Z,6.22
2022-11-01T16:37:25.496Z,4.60
2022-11-01T16:39:53.697Z,6.88
2022-11-01T16:42:22.514Z,6.95
2022-11-01T16:44:55.381Z,7.22
2022-11-01T16:47:23.016Z,8.40
2022-11-01T16:49:52.756Z,6.75
2022-11-01T16:52:20.244Z,6.15
2022-11-01T16:54:51.210Z,7.60
2022-11-01T16:57:26.931Z,5.65
2022-11-01T16:59:54.807Z,5.53
2022-11-01T17:02:25.936Z,5.90
2022-11-01T17:05:20.780Z,5.50
2022-11-01T17:07:48.297Z,7.28
2022-11-01T17:10:23.235Z,5.53
2022-11-01T17:12:50.604Z,6.63
2022-11-01T17:15:19.628Z,7.68
2022-11-01T17:17:48.457Z,7.32
2022-11-01T17:20:22.869Z,8.23
2022-11-01T17:22:51.805Z,6.22
2022-11-01T17:25:20.353Z,6.20
2022-11-01T17:27:51.129Z,8.18
2022-11-01T17:30:19.516Z,7.50
2022-11-01T17:32:47.035Z,7.47
2022-11-01T17:35:15.337Z,5.93
2022-11-01T17:37:42.889Z,9.48
2022-11-01T17:40:21.445Z,8.10
2022-11-01T17:42:48.865Z,8.38
2022-11-01T17:45:16.573Z,9.88
2022-11-01T17:47:43.995Z,7.03
2022-11-01T17:50:16.245Z,8.57
2022-11-01T17:52:43.703Z,6.38
2022-11-01T17:55:11.796Z,9.02
2022-11-01T17:57:43.543Z,7.22
2022-11-01T18:00:11.745Z,10.48
2022-11-01T18:02:43.461Z,12.82
2022-11-01T18:05:11.363Z,10.55
2022-11-01T18:07:43.763Z,11.20
2022-11-01T18:10:20.112Z,11.88
2022-11-01T18:13:07.803Z,7.28
2022-11-01T18:15:35.168Z,7.75
2022-11-01T18:18:38.775Z,6.43
2022-11-01T18:21:39.112Z,10.35
2022-11-01T18:24:16.030Z,6.85
2022-11-01T18:26:46.063Z,7.68
2022-11-01T18:29:20.974Z,5.78
2022-11-01T18:32:03.585Z,8.07
2022-11-01T18:34:40.355Z,9.27
2022-11-01T18:37:26.047Z,7.35
2022-11-01T18:40:03.057Z,5.82
2022-11-01T18:42:30.896Z,7.32
2022-11-01T18:45:00.344Z,5.15
2022-11-01T18:47:33.442Z,7.20
2022-11-01T18:50:03.935Z,6.95
2022-11-01T18:52:33.141Z,5.75
2022-11-01T18:55:00.651Z,5.40
2022-11-01T18:57:28.986Z,6.00
2022-11-01T18:59:56.436Z,7.25
2022-11-01T19:02:27.311Z,4.82
2022-11-01T19:05:10.915Z,5.18
2022-11-01T19:08:05.019Z,4.40
2022-11-01T19:10:28.395Z,5.07
2022-11-01T19:12:56.319Z,6.88
2022-11-01T19:15:25.991Z,5.15
2022-11-01T19:17:58.816Z,5.90
2022-11-01T19:20:28.519Z,3.88
2022-11-01T19:23:05.086Z,6.03
2022-11-01T19:25:34.789Z,5.80
2022-11-01T19:28:13.061Z,5.32
2022-11-01T19:30:40.479Z,6.32
2022-11-01T19:33:37.216Z,4.97
2022-11-01T19:36:17.356Z,3.67
2022-11-01T19:38:45.732Z,6.32
2022-11-01T19:41:16.087Z,5.32
2022-11-01T19:43:43.609Z,5.63
2022-11-01T19:46:17.006Z,4.63
2022-11-01T19:51:17.070Z,4.28
2022-11-01T19:53:45.486Z,6.38
2022-11-01T19:56:22.631Z,7.85
2022-11-01T19:59:00.600Z,5.30
2022-11-01T20:01:34.813Z,5.57
2022-11-01T20:04:27.623Z,6.60
2022-11-01T20:07:01.971Z,5.35
2022-11-01T20:09:36.156Z,4.50
2022-11-01T20:12:03.775Z,6.20
2022-11-01T20:14:34.261Z,4.03
2022-11-01T20:17:02.421Z,3.78
2022-11-01T20:19:31.418Z,5.57
2022-11-01T20:22:01.583Z,4.28
2022-11-01T20:24:30.758Z,5.30
2022-11-01T20:26:59.773Z,4.72
2022-11-01T20:29:27.414Z,3.97
2022-11-01T20:31:54.886Z,3.40
2022-11-01T20:34:22.519Z,3.70
2022-11-01T20:37:14.833Z,3.88
2022-11-01T20:39:38.138Z,4.30
2022-11-01T20:42:08.140Z,3.08
2022-11-01T20:44:35.550Z,4.80
2022-11-01T20:47:03.145Z,4.25
2022-11-01T20:49:30.578Z,3.90
2022-11-01T20:52:13.544Z,3.45
2022-11-01T20:54:46.174Z,3.30
2022-11-01T20:57:26.977Z,3.08
2022-11-01T20:59:56.087Z,4.18
2022-11-01T21:02:23.568Z,2.78
2022-11-01T21:05:07.387Z,3.92
2022-11-01T21:07:34.861Z,3.60
2022-11-01T21:10:27.532Z,2.78
2022-11-01T21:12:55.289Z,2.92
2022-11-01T21:15:36.126Z,5.65
2022-11-01T21:18:12.495Z,5.68
2022-11-01T21:20:49.490Z,4.65
2022-11-01T21:23:35.669Z,4.18
2022-11-01T21:26:21.552Z,4.00
2022-11-01T21:29:16.385Z,5.00
2022-11-01T21:31:44.189Z,5.00
2022-11-01T21:34:12.784Z,5.15
2022-11-01T21:36:47.025Z,4.38
2022-11-01T21:39:19.735Z,5.57
2022-11-01T21:41:50.923Z,3.45
2022-11-01T21:44:18.908Z,4.10
2022-11-01T21:46:50.915Z,4.90
2022-11-01T21:49:32.163Z,3.42
2022-11-01T21:52:01.616Z,5.88
2022-11-01T21:54:30.673Z,4.20
2022-11-01T21:56:58.132Z,6.28
2022-11-01T21:59:27.462Z,4.75
2022-11-01T22:01:56.285Z,5.43
2022-11-01T22:04:28.677Z,4.80
2022-11-01T22:07:01.799Z,4.32
2022-11-01T22:09:31.123Z,2.85
2022-11-01T22:11:59.318Z,3.40
2022-11-01T22:14:26.894Z,4.07
2022-11-01T22:16:54.338Z,3.47
2022-11-01T22:19:21.951Z,3.60
2022-11-01T22:21:49.385Z,4.53
2022-11-01T22:24:17.123Z,2.65
2022-11-01T22:26:44.734Z,5.03
2022-11-01T22:29:13.242Z,4.20
2022-11-01T22:31:40.614Z,3.63
2022-11-01T22:34:08.141Z,3.38
2022-11-01T22:36:36.558Z,5.07
2022-11-01T22:39:21.533Z,2.72
2022-11-01T22:41:49.230Z,2.95
2022-11-01T22:44:17.982Z,4.18
2022-11-01T22:46:56.889Z,3.10
2022-11-01T22:49:38.123Z,3.75
2022-11-01T22:52:16.039Z,7.90
2022-11-01T22:54:48.853Z,4.78
2022-11-01T22:57:24.080Z,6.85
2022-11-01T22:59:53.489Z,4.03
2022-11-01T23:02:31.069Z,4.80
2022-11-01T23:05:24.929Z,4.90
2022-11-01T23:07:57.736Z,4.35
2022-11-01T23:10:35.294Z,3.95
2022-11-01T23:13:27.677Z,5.20
2022-11-01T23:16:00.172Z,2.83
2022-11-01T23:18:32.863Z,3.17
2022-11-01T23:21:03.330Z,2.60
2022-11-01T23:23:30.869Z,2.33
2022-11-01T23:26:00.095Z,3.10
2022-11-01T23:28:27.980Z,2.75
2022-11-01T23:30:55.477Z,3.13
2022-11-01T23:33:26.908Z,3.30
2022-11-01T23:35:56.744Z,3.35
2022-11-01T23:38:48.837Z,4.00
2022-11-01T23:41:42.945Z,2.63
2022-11-01T23:44:18.905Z,3.47
2022-11-01T23:46:46.301Z,2.95
2022-11-01T23:49:19.022Z,3.17
2022-11-01T23:51:46.578Z,5.82
2022-11-01T23:54:40.921Z,4.45
2022-11-01T23:57:19.889Z,4.00
2022-11-01T23:59:48.570Z,3.15
